Time;durP1;ratioP1;P1;durP2;ratioP2;P2;SDS_P1;SDS_P2;PMS_P1;PMS_P2;Temp;Humidity;BMP_temperature;BMP_pressure;BME280_temperature;BME280_humidity;BME280_pressure;Samples;Min_cycle;Max_cycle;Signal;HPM_P1;HPM_P2
2021/01/21 00:02:04;;;;;;;1.10;0.98;;;18.00;53.80;;;;;;5104897;28;20226;-58
2021/01/21 00:04:30;;;;;;;1.48;1.10;;;18.00;53.70;;;;;;5104938;28;20688;-56
2021/01/21 00:06:55;;;;;;;1.67;0.88;;;18.00;53.70;;;;;;5105084;28;20173;-57
2021/01/21 00:09:21;;;;;;;1.67;1.15;;;18.00;53.70;;;;;;5104837;28;20209;-57
2021/01/21 00:11:46;;;;;;;1.55;1.38;;;18.00;53.70;;;;;;5104950;28;20611;-55
2021/01/21 00:14:12;;;;;;;1.63;1.25;;;18.00;53.60;;;;;;5104881;28;20188;-58
2021/01/21 00:16:37;;;;;;;2.60;1.35;;;17.90;53.70;;;;;;5105076;28;20181;-59
2021/01/21 00:19:03;;;;;;;2.90;1.20;;;17.90;53.60;;;;;;5104583;28;20180;-56
2021/01/21 00:21:29;;;;;;;1.48;1.20;;;17.90;53.70;;;;;;5104627;28;20181;-59
2021/01/21 00:23:57;;;;;;;1.67;1.10;;;17.80;53.60;;;;;;5104551;28;20165;-58
2021/01/21 00:26:22;;;;;;;2.05;1.17;;;17.80;53.60;;;;;;5104728;28;20173;-58
2021/01/21 00:28:48;;;;;;;1.40;1.30;;;17.80;53.70;;;;;;5104177;28;20216;-58
2021/01/21 00:31:13;;;;;;;1.70;1.10;;;17.80;53.60;;;;;;5104934;28;20181;-58
2021/01/21 00:33:39;;;;;;;1.08;1.00;;;17.80;53.60;;;;;;5104517;28;20177;-58
2021/01/21 00:36:05;;;;;;;1.73;1.00;;;17.80;53.70;;;;;;5104871;28;20663;-58
2021/01/21 00:38:30;;;;;;;1.23;1.00;;;17.80;53.50;;;;;;5104663;28;20200;-58
2021/01/21 00:40:56;;;;;;;2.17;1.02;;;17.80;53.70;;;;;;5104442;28;20254;-60
2021/01/21 00:43:22;;;;;;;1.90;1.13;;;17.70;53.60;;;;;;5104681;28;20238;-60
2021/01/21 00:45:50;;;;;;;2.00;1.23;;;17.70;53.60;;;;;;5104568;28;20188;-59
2021/01/21 00:48:17;;;;;;;1.83;1.17;;;17.70;53.50;;;;;;5104374;28;20287;-57
2021/01/21 00:50:42;;;;;;;2.00;1.00;;;17.70;53.50;;;;;;5104520;28;20226;-59
2021/01/21 00:53:08;;;;;;;2.40;1.15;;;17.70;53.40;;;;;;5104197;28;20611;-59
2021/01/21 00:55:33;;;;;;;1.40;1.00;;;17.70;53.60;;;;;;5104519;28;20536;-59
2021/01/21 00:57:59;;;;;;;2.70;1.33;;;17.70;53.50;;;;;;5104496;28;20192;-58
2021/01/21 01:00:24;;;;;;;1.05;0.95;;;17.60;53.40;;;;;;5104744;28;20177;-57
2021/01/21 01:02:50;;;;;;;1.40;1.25;;;17.70;53.50;;;;;;5104532;28;20177;-59
2021/01/21 01:05:15;;;;;;;1.92;1.38;;;17.60;53.40;;;;;;5104307;28;21024;-58
2021/01/21 01:07:41;;;;;;;2.00;1.00;;;17.60;53.40;;;;;;5103927;28;20189;-59
2021/01/21 01:10:07;;;;;;;1.33;1.08;;;17.60;53.30;;;;;;5103959;28;20169;-58
2021/01/21 01:12:33;;;;;;;2.40;1.10;;;17.60;53.30;;;;;;5104289;28;20181;-59
2021/01/21 01:14:58;;;;;;;1.00;0.90;;;17.60;53.30;;;;;;5104361;28;20534;-58
2021/01/21 01:17:24;;;;;;;1.98;1.30;;;17.60;53.30;;;;;;5104023;28;20212;-58
2021/01/21 01:19:49;;;;;;;1.65;1.27;;;17.60;53.20;;;;;;5104287;28;20193;-56
2021/01/21 01:22:15;;;;;;;1.40;0.95;;;17.60;53.90;;;;;;5104139;28;20973;-58
2021/01/21 01:24:41;;;;;;;2.88;0.98;;;17.60;53.30;;;;;;5104272;28;20200;-58
2021/01/21 01:27:07;;;;;;;1.45;1.35;;;17.60;53.20;;;;;;5103797;28;20181;-58
2021/01/21 01:29:33;;;;;;;1.10;1.00;;;17.50;53.10;;;;;;5104009;28;20224;-56
2021/01/21 01:31:59;;;;;;;1.48;1.10;;;17.60;53.20;;;;;;5104082;28;20494;-56
2021/01/21 01:34:24;;;;;;;1.38;1.25;;;17.50;53.10;;;;;;5104767;28;20214;-56
2021/01/21 01:36:50;;;;;;;1.23;0.90;;;17.50;53.10;;;;;;5107669;28;20205;-57
2021/01/21 01:39:15;;;;;;;0.82;0.82;;;17.50;53.00;;;;;;5107440;28;20184;-56
2021/01/21 01:41:41;;;;;;;0.90;0.90;;;17.50;53.00;;;;;;5107754;28;20521;-58
2021/01/21 01:44:06;;;;;;;1.20;1.10;;;17.50;52.90;;;;;;5107549;28;20169;-57
2021/01/21 01:46:32;;;;;;;1.25;1.00;;;17.50;53.10;;;;;;5107567;28;20212;-58
2021/01/21 01:48:58;;;;;;;1.67;1.17;;;17.50;52.80;;;;;;5107301;28;20257;-55
2021/01/21 01:51:23;;;;;;;1.33;1.00;;;17.50;52.90;;;;;;5107384;28;20173;-55
2021/01/21 01:53:49;;;;;;;1.05;0.95;;;17.50;52.80;;;;;;5089335;28;20230;-57
2021/01/21 01:56:15;;;;;;;1.15;0.98;;;17.50;53.00;;;;;;5107302;28;20536;-57
2021/01/21 01:58:40;;;;;;;2.47;1.15;;;17.50;52.90;;;;;;5107236;28;20173;-56
2021/01/21 02:01:06;;;;;;;0.85;0.85;;;17.40;53.10;;;;;;5107184;28;20173;-57
2021/01/21 02:03:31;;;;;;;1.40;1.30;;;17.40;52.90;;;;;;5072815;28;20256;-58
2021/01/21 02:05:57;;;;;;;1.35;1.10;;;17.40;52.90;;;;;;5089184;28;20180;-57
2021/01/21 02:08:23;;;;;;;0.95;0.95;;;17.40;52.80;;;;;;5107174;28;20217;-58
2021/01/21 02:10:48;;;;;;;2.08;1.30;;;17.40;52.90;;;;;;5072128;28;20172;-57
2021/01/21 02:13:36;;;;;;;1.17;1.00;;;17.40;52.80;;;;;;5106937;28;20242;-60
2021/01/21 02:16:08;;;;;;;1.20;1.00;;;17.40;52.80;;;;;;5088640;28;20417;-55
2021/01/21 02:18:52;;;;;;;1.10;0.90;;;17.40;52.80;;;;;;5107040;28;20208;-57
2021/01/21 02:21:30;;;;;;;1.30;1.20;;;17.40;52.70;;;;;;5106991;28;20165;-59
2021/01/21 02:23:58;;;;;;;1.00;0.82;;;17.40;52.80;;;;;;5106498;28;20519;-58
2021/01/21 02:26:26;;;;;;;1.67;1.00;;;17.40;52.70;;;;;;5106987;28;20177;-59
2021/01/21 02:29:16;;;;;;;1.25;0.90;;;17.30;52.60;;;;;;5071945;28;20204;-56
2021/01/21 02:32:01;;;;;;;1.20;1.10;;;17.30;52.70;;;;;;5091758;28;20268;-57
2021/01/21 02:34:51;;;;;;;1.20;1.10;;;17.30;52.70;;;;;;5106601;28;20173;-53
2021/01/21 02:37:24;;;;;;;1.13;0.95;;;17.30;52.70;;;;;;5088506;28;20177;-56
2021/01/21 02:39:52;;;;;;;1.88;1.50;;;17.30;52.70;;;;;;5106528;28;20177;-57
2021/01/21 02:42:18;;;;;;;1.73;1.27;;;17.30;52.70;;;;;;5088690;28;20251;-56
2021/01/21 02:44:43;;;;;;;1.73;1.17;;;17.30;52.70;;;;;;5106376;28;20212;-55
2021/01/21 02:47:10;;;;;;;1.23;1.05;;;17.40;52.70;;;;;;5106298;28;20185;-59
2021/01/21 02:49:35;;;;;;;1.00;0.80;;;17.30;52.70;;;;;;5106154;28;20240;-58
2021/01/21 02:52:01;;;;;;;1.63;1.05;;;17.30;52.70;;;;;;5088350;28;21101;-58
2021/01/21 02:54:45;;;;;;;1.70;1.10;;;17.30;52.70;;;;;;5106196;28;20169;-54
2021/01/21 02:57:21;;;;;;;1.90;1.33;;;17.30;52.70;;;;;;5106381;28;20623;-57
2021/01/21 02:59:46;;;;;;;1.10;1.00;;;17.30;52.70;;;;;;5105552;28;20181;-58
2021/01/21 03:02:12;;;;;;;0.93;0.80;;;17.30;52.70;;;;;;5071025;28;20184;-58
2021/01/21 03:04:38;;;;;;;1.00;0.90;;;17.30;52.70;;;;;;5088078;28;20222;-57
2021/01/21 03:07:05;;;;;;;1.25;1.08;;;17.30;52.70;;;;;;5105969;28;20171;-58
2021/01/21 03:09:30;;;;;;;1.05;1.02;;;17.30;52.70;;;;;;5105798;28;20296;-59
2021/01/21 03:12:14;;;;;;;1.40;1.08;;;17.20;52.80;;;;;;5087775;28;20248;-58
2021/01/21 03:14:40;;;;;;;1.00;0.82;;;17.20;52.60;;;;;;5087692;28;20742;-57
2021/01/21 03:17:05;;;;;;;1.50;1.35;;;17.20;52.60;;;;;;5105934;28;20257;-60
2021/01/21 03:19:31;;;;;;;2.00;1.10;;;17.30;52.70;;;;;;5106029;28;20184;-59
2021/01/21 03:21:57;;;;;;;1.10;0.98;;;17.20;52.60;;;;;;5105935;28;21078;-59
2021/01/21 03:24:22;;;;;;;2.28;1.10;;;17.20;52.70;;;;;;5105731;28;20173;-57
2021/01/21 03:26:48;;;;;;;1.25;0.90;;;17.20;52.60;;;;;;5105671;28;20176;-55
2021/01/21 03:29:13;;;;;;;1.75;1.45;;;17.20;52.60;;;;;;5105098;28;20270;-57
2021/01/21 03:31:39;;;;;;;1.10;0.82;;;17.20;52.60;;;;;;5105214;28;20185;-58
2021/01/21 03:34:04;;;;;;;1.38;0.93;;;17.10;52.60;;;;;;5105370;28;20170;-58
2021/01/21 03:36:30;;;;;;;1.05;0.95;;;17.20;52.60;;;;;;5105479;28;20177;-56
2021/01/21 03:38:55;;;;;;;0.90;0.90;;;17.20;52.60;;;;;;5105581;28;20694;-59
2021/01/21 03:41:21;;;;;;;1.17;1.08;;;17.20;52.60;;;;;;5105374;28;20648;-58
2021/01/21 03:43:46;;;;;;;1.73;1.00;;;17.10;52.60;;;;;;5105006;28;20181;-52
2021/01/21 03:46:12;;;;;;;1.08;0.90;;;17.10;52.60;;;;;;5105181;28;20189;-56
2021/01/21 03:48:37;;;;;;;0.85;0.85;;;17.10;52.60;;;;;;5104938;28;20215;-56
2021/01/21 03:51:03;;;;;;;2.80;1.10;;;17.10;53.30;;;;;;5105135;28;20248;-57
2021/01/21 03:53:28;;;;;;;0.85;0.80;;;17.10;52.60;;;;;;5105109;28;20198;-57
2021/01/21 03:55:54;;;;;;;1.33;1.13;;;17.10;52.60;;;;;;5105058;28;20214;-58
2021/01/21 03:58:19;;;;;;;1.65;1.13;;;17.10;52.60;;;;;;5104090;28;20377;-59
2021/01/21 04:00:45;;;;;;;1.15;1.15;;;17.10;52.60;;;;;;5105192;28;20211;-57
2021/01/21 04:03:10;;;;;;;1.70;1.23;;;17.10;52.60;;;;;;5104991;28;20169;-56
2021/01/21 04:05:36;;;;;;;0.82;0.73;;;17.10;52.60;;;;;;5105022;28;20169;-57
2021/01/21 04:08:02;;;;;;;1.88;1.02;;;17.10;52.60;;;;;;5104550;28;20208;-57
2021/01/21 04:10:27;;;;;;;1.60;1.13;;;17.10;52.60;;;;;;5105094;28;20173;-56
2021/01/21 04:12:53;;;;;;;0.70;0.70;;;17.00;52.60;;;;;;5105108;28;20173;-58
2021/01/21 04:15:18;;;;;;;0.93;0.88;;;17.00;52.60;;;;;;5105125;28;20173;-58
2021/01/21 04:17:44;;;;;;;1.85;1.02;;;17.00;52.60;;;;;;5104887;28;20177;-59
2021/01/21 04:20:10;;;;;;;1.67;0.90;;;17.00;52.60;;;;;;5104861;28;20173;-58
2021/01/21 04:22:35;;;;;;;2.40;0.88;;;17.10;52.70;;;;;;5104967;28;20179;-56
2021/01/21 04:25:01;;;;;;;1.20;0.88;;;17.00;52.80;;;;;;5104666;28;20165;-59
2021/01/21 04:27:26;;;;;;;0.80;0.60;;;17.00;52.70;;;;;;5086690;28;20169;-57
2021/01/21 04:29:52;;;;;;;1.35;1.00;;;17.00;52.70;;;;;;5104470;28;20228;-58
2021/01/21 04:32:18;;;;;;;1.95;0.90;;;17.00;52.80;;;;;;5104861;28;20634;-56
2021/01/21 04:34:43;;;;;;;1.63;0.80;;;17.00;52.80;;;;;;5104605;28;20600;-57
2021/01/21 04:37:09;;;;;;;1.10;0.80;;;17.00;52.80;;;;;;5104495;28;20168;-59
2021/01/21 04:39:34;;;;;;;1.23;1.13;;;17.00;52.90;;;;;;5104633;28;20212;-57
2021/01/21 04:42:00;;;;;;;0.82;0.82;;;17.00;52.90;;;;;;5104941;28;20580;-57
2021/01/21 04:44:25;;;;;;;0.93;0.80;;;17.00;52.90;;;;;;5104494;28;20173;-56
2021/01/21 04:46:51;;;;;;;1.15;0.95;;;17.00;52.90;;;;;;5086288;28;20169;-56
2021/01/21 04:49:16;;;;;;;1.60;1.08;;;16.90;52.70;;;;;;5069654;28;20205;-59
2021/01/21 04:51:43;;;;;;;0.80;0.65;;;16.90;52.80;;;;;;5086314;28;20233;-58
2021/01/21 04:54:08;;;;;;;0.95;0.85;;;16.90;52.70;;;;;;5103984;28;20535;-57
2021/01/21 04:56:37;;;;;;;0.88;0.88;;;16.90;52.70;;;;;;5104296;28;20185;-53
2021/01/21 04:59:03;;;;;;;0.80;0.80;;;16.90;52.70;;;;;;5086070;28;20177;-57
2021/01/21 05:01:31;;;;;;;1.05;0.90;;;16.90;52.60;;;;;;5086073;28;20234;-53
2021/01/21 05:03:57;;;;;;;0.95;0.80;;;16.90;52.60;;;;;;5104883;28;20177;-57
2021/01/21 05:06:23;;;;;;;1.98;1.00;;;16.90;52.50;;;;;;5086721;28;20169;-59
2021/01/21 05:08:49;;;;;;;1.23;0.80;;;16.80;52.50;;;;;;5087308;28;20215;-58
2021/01/21 05:11:14;;;;;;;0.75;0.60;;;16.90;53.20;;;;;;5073268;28;20177;-55
2021/01/21 05:13:40;;;;;;;1.58;0.90;;;16.80;52.50;;;;;;5107980;28;20230;-56
2021/01/21 05:16:05;;;;;;;4.63;1.30;;;16.80;52.50;;;;;;5090031;28;20536;-53
2021/01/21 05:18:34;;;;;;;1.95;0.80;;;16.80;52.50;;;;;;5108089;28;20914;-59
2021/01/21 05:21:00;;;;;;;1.58;0.60;;;16.80;52.40;;;;;;5108150;28;20193;-57
2021/01/21 05:23:25;;;;;;;1.10;0.75;;;16.80;52.40;;;;;;5107893;28;20220;-55
2021/01/21 05:25:51;;;;;;;1.23;0.80;;;16.80;52.30;;;;;;5089276;28;20185;-55
2021/01/21 05:28:17;;;;;;;2.50;0.90;;;16.80;52.30;;;;;;5089769;28;20212;-54
2021/01/21 05:30:43;;;;;;;1.27;0.90;;;16.70;52.20;;;;;;5108081;28;20586;-52
2021/01/21 05:33:08;;;;;;;1.13;0.80;;;16.70;52.20;;;;;;5072381;28;20266;-56
2021/01/21 05:35:34;;;;;;;1.85;1.00;;;16.70;52.20;;;;;;5089857;28;20679;-55
2021/01/21 05:37:59;;;;;;;1.02;0.80;;;16.80;52.20;;;;;;5089676;28;20615;-54
2021/01/21 05:40:26;;;;;;;0.63;0.63;;;16.80;52.20;;;;;;5072647;28;20570;-55
2021/01/21 05:42:56;;;;;;;0.85;0.70;;;16.70;52.10;;;;;;5107656;28;20181;-57
2021/01/21 05:45:22;;;;;;;1.70;0.98;;;16.70;52.00;;;;;;5107725;28;20177;-57
2021/01/21 05:48:01;;;;;;;0.70;0.70;;;16.70;52.00;;;;;;5107663;28;20210;-55
2021/01/21 05:50:27;;;;;;;1.08;0.73;;;16.70;52.00;;;;;;5107773;28;20177;-59
2021/01/21 05:52:56;;;;;;;0.90;0.70;;;16.70;51.90;;;;;;5107557;28;20201;-59
2021/01/21 05:55:23;;;;;;;0.73;0.60;;;16.70;52.00;;;;;;5107364;28;20169;-56
2021/01/21 05:57:49;;;;;;;1.23;0.88;;;16.70;51.90;;;;;;5107496;28;20623;-57
2021/01/21 06:00:16;;;;;;;0.80;0.75;;;16.70;52.00;;;;;;5107464;28;20184;-54
2021/01/21 06:02:43;;;;;;;0.70;0.70;;;16.70;51.90;;;;;;5107144;28;20650;-57
2021/01/21 06:05:10;;;;;;;1.42;0.60;;;16.70;52.20;;;;;;5107451;28;20208;-54
2021/01/21 06:07:35;;;;;;;1.27;0.90;;;16.70;52.20;;;;;;5088428;28;20181;-58
2021/01/21 06:10:01;;;;;;;0.63;0.60;;;16.80;52.20;;;;;;5072342;28;20685;-57
2021/01/21 06:12:27;;;;;;;1.15;0.90;;;16.90;52.30;;;;;;5089155;28;20591;-57
2021/01/21 06:15:00;;;;;;;0.95;0.70;;;17.00;52.10;;;;;;5106892;28;20181;-56
2021/01/21 06:17:29;;;;;;;1.70;0.73;;;17.10;52.00;;;;;;5089793;28;20184;-57
2021/01/21 06:19:54;;;;;;;1.25;0.75;;;17.20;51.80;;;;;;5106288;28;20181;-52
2021/01/21 06:22:22;;;;;;;0.40;0.40;;;17.40;51.70;;;;;;5106716;28;20184;-54
2021/01/21 06:24:49;;;;;;;1.30;0.70;;;17.50;51.50;;;;;;5106798;28;20169;-56
2021/01/21 06:27:15;;;;;;;0.65;0.50;;;17.60;51.40;;;;;;5106946;28;20185;-58
2021/01/21 06:29:40;;;;;;;1.55;0.70;;;17.80;51.10;;;;;;5106585;28;20213;-57
2021/01/21 06:32:08;;;;;;;0.80;0.50;;;17.90;50.80;;;;;;5088578;28;20289;-58
2021/01/21 06:34:35;;;;;;;0.88;0.68;;;18.00;50.50;;;;;;5071874;28;20181;-58
2021/01/21 06:37:11;;;;;;;2.00;0.73;;;18.10;50.30;;;;;;5088757;28;20178;-59
2021/01/21 06:39:53;;;;;;;1.05;0.60;;;18.20;50.20;;;;;;5106929;28;20173;-60
2021/01/21 06:42:33;;;;;;;2.13;0.75;;;18.20;50.00;;;;;;5087977;28;20177;-59
2021/01/21 06:44:59;;;;;;;1.05;0.75;;;18.30;50.00;;;;;;5088536;28;20204;-59
2021/01/21 06:47:24;;;;;;;1.67;0.80;;;18.30;49.90;;;;;;5106483;28;20208;-59
2021/01/21 06:49:57;;;;;;;1.35;0.68;;;18.40;49.80;;;;;;5106151;28;20220;-59
2021/01/21 06:52:29;;;;;;;0.68;0.60;;;18.50;49.80;;;;;;5106520;28;20259;-59
2021/01/21 06:54:56;;;;;;;1.10;0.60;;;18.50;49.70;;;;;;5071415;28;20169;-58
2021/01/21 06:57:33;;;;;;;0.77;0.65;;;18.50;49.70;;;;;;5088222;28;20186;-58
2021/01/21 06:59:59;;;;;;;0.63;0.55;;;18.50;49.80;;;;;;5106148;28;20249;-59
2021/01/21 07:02:57;;;;;;;0.85;0.52;;;18.50;49.80;;;;;;5106249;28;20216;-58
2021/01/21 07:05:24;;;;;;;1.35;0.70;;;18.40;50.00;;;;;;5033207;28;20189;-59
2021/01/21 07:07:53;;;;;;;1.83;0.70;;;18.30;50.10;;;;;;5105928;28;20961;-57
2021/01/21 07:10:30;;;;;;;1.45;0.68;;;18.20;50.10;;;;;;5105716;28;20175;-60
2021/01/21 07:12:56;;;;;;;1.85;0.68;;;18.10;50.20;;;;;;5106220;28;20194;-59
2021/01/21 07:15:29;;;;;;;2.70;0.85;;;18.10;50.40;;;;;;5106038;28;20434;-59
2021/01/21 07:18:01;;;;;;;0.88;0.65;;;18.00;50.30;;;;;;5087837;28;20165;-58
2021/01/21 07:20:26;;;;;;;2.00;1.33;;;17.90;50.30;;;;;;5105613;28;20679;-61
2021/01/21 07:22:56;;;;;;;2.08;1.00;;;17.80;50.40;;;;;;5087766;28;20206;-59
2021/01/21 07:25:21;;;;;;;1.35;0.70;;;17.70;50.50;;;;;;5070545;28;20181;-56
2021/01/21 07:27:47;;;;;;;1.60;0.70;;;17.70;50.50;;;;;;5070717;28;20202;-59
2021/01/21 07:30:23;;;;;;;1.65;0.77;;;17.70;50.60;;;;;;5087607;28;20197;-57
2021/01/21 07:32:49;;;;;;;1.63;0.80;;;17.60;51.20;;;;;;5104760;28;20169;-59
2021/01/21 07:35:34;;;;;;;1.65;0.82;;;17.50;50.70;;;;;;5087674;28;20177;-59
2021/01/21 07:38:00;;;;;;;2.40;0.80;;;17.50;50.60;;;;;;5105210;28;20260;-54
2021/01/21 07:40:47;;;;;;;2.60;0.88;;;17.50;50.70;;;;;;5087316;28;20252;-54
2021/01/21 07:43:13;;;;;;;1.58;0.90;;;17.50;50.70;;;;;;5105484;28;20176;-60
2021/01/21 07:45:39;;;;;;;2.50;1.08;;;17.50;50.60;;;;;;5105497;28;20177;-60
2021/01/21 07:48:21;;;;;;;2.97;0.98;;;17.60;50.60;;;;;;5105265;28;20647;-64
2021/01/21 07:50:47;;;;;;;1.05;0.60;;;17.50;50.50;;;;;;5104969;28;20169;-62
2021/01/21 07:53:20;;;;;;;1.65;0.80;;;17.50;50.70;;;;;;5086985;28;20177;-62
2021/01/21 07:55:46;;;;;;;1.38;0.65;;;17.50;50.50;;;;;;5105340;28;20173;-62
2021/01/21 07:58:19;;;;;;;2.30;1.13;;;17.50;50.60;;;;;;5105266;28;20181;-63
2021/01/21 08:00:49;;;;;;;2.90;0.98;;;17.50;51.30;;;;;;5105546;28;20170;-62
2021/01/21 08:03:15;;;;;;;2.35;0.93;;;17.40;51.60;;;;;;5104961;28;20173;-63
2021/01/21 08:05:40;;;;;;;3.45;1.27;;;17.40;51.70;;;;;;5104954;28;20161;-63
2021/01/21 08:08:06;;;;;;;3.33;1.10;;;17.40;51.90;;;;;;5086693;28;20216;-62
2021/01/21 08:10:36;;;;;;;2.40;1.13;;;17.40;51.90;;;;;;5104862;28;20165;-63
2021/01/21 08:13:04;;;;;;;2.85;1.33;;;17.40;51.90;;;;;;5086498;28;20229;-63
2021/01/21 08:15:30;;;;;;;2.55;1.35;;;17.40;52.00;;;;;;5104664;28;20169;-59
2021/01/21 08:17:57;;;;;;;1.40;0.95;;;17.50;52.20;;;;;;5104845;28;20176;-54
2021/01/21 08:20:24;;;;;;;4.85;1.20;;;17.50;52.10;;;;;;5104727;28;20169;-60
2021/01/21 08:23:00;;;;;;;2.13;0.93;;;17.50;52.30;;;;;;5096507;28;20173;-60
2021/01/21 08:25:48;;;;;;;1.55;1.20;;;17.50;52.50;;;;;;5087097;28;20245;-57
2021/01/21 08:28:16;;;;;;;3.08;1.00;;;17.50;52.60;;;;;;5063988;28;20289;-59
2021/01/21 08:30:42;;;;;;;2.45;0.98;;;17.50;52.70;;;;;;5078963;28;20191;-60
2021/01/21 08:33:11;;;;;;;4.18;1.30;;;17.40;52.60;;;;;;5104439;28;20540;-59
2021/01/21 08:35:42;;;;;;;3.45;1.17;;;17.40;52.60;;;;;;5104387;28;20189;-59
2021/01/21 08:38:14;;;;;;;3.67;1.33;;;17.40;52.70;;;;;;5086471;28;20362;-60
2021/01/21 08:40:40;;;;;;;2.22;1.00;;;17.40;53.00;;;;;;5066727;28;20178;-64
2021/01/21 08:43:06;;;;;;;3.13;1.42;;;17.40;53.00;;;;;;5050358;28;20202;-63
2021/01/21 08:45:31;;;;;;;4.40;1.60;;;17.40;52.30;;;;;;5070775;28;20197;-63
2021/01/21 08:47:57;;;;;;;2.60;1.27;;;17.40;52.00;;;;;;5088299;28;20213;-63
2021/01/21 08:50:30;;;;;;;3.17;1.00;;;17.50;52.00;;;;;;5088065;28;20177;-64
2021/01/21 08:53:03;;;;;;;3.33;1.23;;;17.50;52.00;;;;;;5054381;28;20182;-62
2021/01/21 08:55:42;;;;;;;4.65;1.67;;;17.50;52.00;;;;;;5088780;28;20178;-62
2021/01/21 08:58:09;;;;;;;2.80;1.45;;;17.50;52.30;;;;;;5091775;28;20198;-63
2021/01/21 09:00:35;;;;;;;4.18;1.27;;;17.50;52.30;;;;;;5108448;28;20172;-62
2021/01/21 09:03:01;;;;;;;1.75;1.10;;;17.50;52.20;;;;;;5108367;28;20184;-63
2021/01/21 09:05:30;;;;;;;2.50;1.23;;;17.60;52.20;;;;;;5108405;28;20173;-61
2021/01/21 09:08:08;;;;;;;6.72;1.40;;;17.60;52.00;;;;;;5108321;28;20165;-56
2021/01/21 09:10:43;;;;;;;3.08;1.40;;;17.60;52.20;;;;;;5108347;28;20177;-59
2021/01/21 09:13:09;;;;;;;2.15;1.20;;;17.60;52.20;;;;;;5107855;28;20192;-58
2021/01/21 09:15:55;;;;;;;4.75;1.48;;;17.70;52.40;;;;;;5108126;28;20619;-62
2021/01/21 09:18:26;;;;;;;3.38;1.10;;;17.70;52.60;;;;;;5090319;28;20189;-61
2021/01/21 09:21:10;;;;;;;1.45;1.00;;;17.80;52.60;;;;;;5089720;28;20256;-62
2021/01/21 09:23:36;;;;;;;1.90;0.98;;;17.80;52.50;;;;;;5072941;28;20634;-61
2021/01/21 09:26:15;;;;;;;2.55;1.20;;;17.80;52.40;;;;;;5107981;28;20173;-62
2021/01/21 09:28:56;;;;;;;2.58;1.00;;;17.80;52.40;;;;;;5089598;28;20204;-60
2021/01/21 09:31:23;;;;;;;3.08;1.63;;;17.80;52.40;;;;;;5092208;28;20202;-61
2021/01/21 09:33:50;;;;;;;2.13;1.27;;;17.80;52.40;;;;;;5087446;28;20174;-62
2021/01/21 09:36:15;;;;;;;2.90;1.42;;;17.80;52.70;;;;;;5069633;28;20234;-62
2021/01/21 09:38:41;;;;;;;2.08;1.02;;;17.80;52.40;;;;;;5087333;28;20269;-61
2021/01/21 09:41:07;;;;;;;4.13;1.20;;;17.90;52.80;;;;;;5087304;28;20166;-62
2021/01/21 09:43:32;;;;;;;4.13;1.20;;;17.90;52.40;;;;;;5086916;28;20186;-63
2021/01/21 09:45:58;;;;;;;5.10;1.65;;;17.90;52.30;;;;;;5069452;28;20185;-61
2021/01/21 09:48:24;;;;;;;4.38;1.42;;;17.90;52.20;;;;;;5087022;28;20213;-62
2021/01/21 09:50:53;;;;;;;2.65;1.23;;;17.90;52.20;;;;;;5087053;28;20166;-61
2021/01/21 09:53:18;;;;;;;4.10;1.52;;;17.90;52.20;;;;;;5086909;28;20201;-62
2021/01/21 09:55:44;;;;;;;2.63;1.42;;;17.90;52.10;;;;;;5085907;28;21152;-61
2021/01/21 09:58:09;;;;;;;3.20;1.15;;;17.90;52.10;;;;;;5087070;28;20166;-61
2021/01/21 10:00:35;;;;;;;1.90;1.20;;;17.90;52.00;;;;;;5086928;28;20170;-62
2021/01/21 10:03:00;;;;;;;5.68;1.10;;;17.90;51.90;;;;;;5086741;28;20234;-61
2021/01/21 10:05:26;;;;;;;3.33;1.40;;;17.90;51.90;;;;;;5087003;28;20182;-59
2021/01/21 10:07:51;;;;;;;4.32;1.58;;;17.80;51.80;;;;;;5086679;28;20971;-63
2021/01/21 10:10:17;;;;;;;4.30;1.60;;;17.80;51.90;;;;;;5086737;28;20277;-61
2021/01/21 10:12:43;;;;;;;2.05;1.00;;;17.80;51.80;;;;;;5086644;28;20189;-61
2021/01/21 10:15:09;;;;;;;3.05;1.08;;;17.70;51.70;;;;;;5068551;28;20187;-62
2021/01/21 10:17:34;;;;;;;3.55;1.63;;;17.70;51.80;;;;;;5086058;28;20222;-61
2021/01/21 10:20:00;;;;;;;2.15;1.08;;;17.60;51.80;;;;;;5086544;28;20177;-63
2021/01/21 10:22:26;;;;;;;2.08;1.02;;;17.60;51.70;;;;;;5086647;28;20200;-60
2021/01/21 10:24:51;;;;;;;2.08;1.13;;;17.70;51.60;;;;;;5086639;28;20260;-61
2021/01/21 10:27:17;;;;;;;4.07;1.30;;;17.70;51.60;;;;;;5086428;28;20174;-62
2021/01/21 10:29:42;;;;;;;2.13;0.93;;;17.70;51.50;;;;;;5087343;28;20256;-61
2021/01/21 10:32:08;;;;;;;4.85;1.30;;;17.60;51.40;;;;;;5106440;28;20267;-60
2021/01/21 10:34:34;;;;;;;3.80;1.23;;;17.60;51.50;;;;;;5106292;28;20185;-61
2021/01/21 10:37:00;;;;;;;3.45;1.05;;;17.60;51.50;;;;;;5106965;28;20252;-60
2021/01/21 10:39:25;;;;;;;5.40;1.35;;;17.60;51.50;;;;;;5106642;28;20226;-63
2021/01/21 10:41:51;;;;;;;2.75;1.30;;;17.50;51.90;;;;;;5106521;28;20173;-62
2021/01/21 10:44:16;;;;;;;3.17;1.45;;;17.50;51.30;;;;;;5088344;28;20619;-60
2021/01/21 10:46:42;;;;;;;2.83;1.40;;;17.50;51.30;;;;;;5106578;28;20177;-61
2021/01/21 10:49:08;;;;;;;4.03;1.30;;;17.50;51.40;;;;;;5106521;28;20230;-61
2021/01/21 10:51:33;;;;;;;2.45;1.20;;;17.50;51.40;;;;;;5088219;28;20165;-61
2021/01/21 10:53:59;;;;;;;2.60;1.17;;;17.50;51.30;;;;;;5106271;28;20170;-61
2021/01/21 10:56:24;;;;;;;2.60;1.20;;;17.50;51.90;;;;;;5106255;28;20218;-61
2021/01/21 10:58:50;;;;;;;2.55;1.30;;;17.50;51.30;;;;;;5106267;28;20172;-62
2021/01/21 11:01:15;;;;;;;3.40;1.30;;;17.40;51.20;;;;;;5106094;28;20260;-62
2021/01/21 11:03:41;;;;;;;3.97;1.42;;;17.40;51.30;;;;;;5105816;28;20669;-62
2021/01/21 11:06:06;;;;;;;3.35;1.50;;;17.40;51.30;;;;;;5105793;28;20260;-62
2021/01/21 11:08:32;;;;;;;3.03;1.33;;;17.40;51.50;;;;;;5088014;28;20220;-62
2021/01/21 11:10:58;;;;;;;4.45;1.30;;;17.40;51.60;;;;;;5106129;28;20177;-62
2021/01/21 11:13:23;;;;;;;2.67;1.05;;;17.50;51.40;;;;;;5105947;28;20169;-60
2021/01/21 11:15:49;;;;;;;2.83;1.00;;;17.50;51.50;;;;;;5105801;28;20169;-60
2021/01/21 11:18:15;;;;;;;4.75;1.48;;;17.50;51.50;;;;;;5106087;28;20204;-61
2021/01/21 11:20:41;;;;;;;3.58;1.20;;;17.50;51.50;;;;;;5071096;28;20207;-63
2021/01/21 11:23:07;;;;;;;5.63;1.23;;;17.50;51.70;;;;;;5087743;28;20184;-54
2021/01/21 11:25:33;;;;;;;3.53;1.35;;;17.50;51.80;;;;;;5105356;28;20215;-57
2021/01/21 11:27:58;;;;;;;3.90;1.23;;;17.50;51.70;;;;;;5105674;28;20959;-56
2021/01/21 11:30:24;;;;;;;2.72;1.30;;;17.50;51.90;;;;;;5097773;28;20196;-54
2021/01/21 11:32:50;;;;;;;3.15;1.20;;;17.60;52.20;;;;;;5084964;28;20178;-57
2021/01/21 11:35:16;;;;;;;5.85;1.27;;;17.80;52.90;;;;;;5084963;28;20184;-58
2021/01/21 11:37:41;;;;;;;2.47;1.10;;;17.90;51.90;;;;;;5084913;28;20182;-57
2021/01/21 11:40:07;;;;;;;3.60;1.15;;;18.10;51.40;;;;;;5085168;28;20185;-55
2021/01/21 11:42:33;;;;;;;3.05;1.45;;;18.40;50.90;;;;;;5085124;28;20177;-53
2021/01/21 11:45:01;;;;;;;2.85;1.02;;;18.80;50.70;;;;;;5084662;28;20177;-55
2021/01/21 11:47:28;;;;;;;1.90;1.00;;;19.10;50.10;;;;;;5084900;28;20227;-58
2021/01/21 11:49:53;;;;;;;2.03;1.10;;;19.40;49.70;;;;;;5084773;28;20205;-56
2021/01/21 11:52:19;;;;;;;3.53;1.33;;;19.50;49.50;;;;;;5085028;28;20585;-57
2021/01/21 11:54:44;;;;;;;3.00;1.00;;;19.60;49.30;;;;;;5084602;28;20177;-57
2021/01/21 11:57:10;;;;;;;2.65;1.10;;;19.60;49.30;;;;;;5084288;28;20174;-60
2021/01/21 11:59:35;;;;;;;4.05;0.90;;;19.60;49.40;;;;;;5084733;28;20260;-56
2021/01/21 12:02:01;;;;;;;1.98;0.90;;;19.60;49.40;;;;;;5084737;28;20182;-58
2021/01/21 12:04:27;;;;;;;1.20;0.80;;;19.70;49.40;;;;;;5084654;28;20501;-59
2021/01/21 12:06:52;;;;;;;3.28;1.02;;;19.70;49.30;;;;;;5084107;28;20558;-63
2021/01/21 12:09:18;;;;;;;1.70;1.10;;;19.80;49.40;;;;;;5084395;28;20303;-60
2021/01/21 12:11:43;;;;;;;1.83;0.85;;;19.80;49.20;;;;;;5084336;28;20173;-64
2021/01/21 12:14:09;;;;;;;1.80;1.00;;;19.80;49.10;;;;;;5084550;28;20181;-61
2021/01/21 12:16:34;;;;;;;3.15;1.00;;;19.80;49.20;;;;;;5084142;28;20257;-61
2021/01/21 12:19:00;;;;;;;2.63;1.05;;;19.90;49.30;;;;;;5083504;28;20619;-60
2021/01/21 12:21:27;;;;;;;2.05;0.90;;;19.80;49.40;;;;;;5084255;28;20196;-61
2021/01/21 12:23:52;;;;;;;2.08;0.80;;;19.90;49.30;;;;;;5084453;28;20162;-64
2021/01/21 12:26:18;;;;;;;3.22;1.00;;;19.90;49.30;;;;;;5084054;28;20185;-63
2021/01/21 12:28:43;;;;;;;2.20;1.00;;;19.90;49.30;;;;;;5084076;28;20194;-60
2021/01/21 12:31:09;;;;;;;1.73;0.70;;;19.90;49.30;;;;;;5097741;28;20239;-60
2021/01/21 12:33:35;;;;;;;1.50;0.95;;;19.80;49.30;;;;;;5104776;28;20165;-61
2021/01/21 12:36:00;;;;;;;3.00;0.93;;;19.80;49.40;;;;;;5104483;28;20177;-61
2021/01/21 12:38:26;;;;;;;2.70;0.82;;;19.80;49.50;;;;;;5104419;28;20237;-61
2021/01/21 12:40:52;;;;;;;3.22;0.93;;;19.80;50.20;;;;;;5104540;28;20172;-61
2021/01/21 12:43:21;;;;;;;1.90;0.70;;;19.80;49.40;;;;;;5104721;28;20173;-63
2021/01/21 12:45:47;;;;;;;2.60;1.00;;;19.80;49.50;;;;;;5104669;28;20238;-61
2021/01/21 12:48:13;;;;;;;2.83;1.10;;;19.70;49.60;;;;;;5104328;28;20169;-61
2021/01/21 12:50:39;;;;;;;2.20;0.98;;;19.70;49.60;;;;;;5104558;28;20169;-63